sensor_id;sensor_type;location;lat;lon;timestamp;temperature;humidity
69628;DHT22;56850;51.984;5.088;2023-03-01T00:01:04;4.70;54.10
69628;DHT22;56850;51.984;5.088;2023-03-01T00:03:33;4.70;54.30
69628;DHT22;56850;51.984;5.088;2023-03-01T00:06:01;4.70;54.30
69628;DHT22;56850;51.984;5.088;2023-03-01T00:08:28;4.70;54.40
69628;DHT22;56850;51.984;5.088;2023-03-01T00:11:12;4.70;54.40
69628;DHT22;56850;51.984;5.088;2023-03-01T00:13:40;4.70;54.40
69628;DHT22;56850;51.984;5.088;2023-03-01T00:16:15;4.70;54.50
69628;DHT22;56850;51.984;5.088;2023-03-01T00:18:43;4.70;54.50
69628;DHT22;56850;51.984;5.088;2023-03-01T00:21:10;4.70;54.60
69628;DHT22;56850;51.984;5.088;2023-03-01T00:23:37;4.60;54.50
69628;DHT22;56850;51.984;5.088;2023-03-01T00:26:13;4.60;54.60
69628;DHT22;56850;51.984;5.088;2023-03-01T00:28:41;4.60;54.60
69628;DHT22;56850;51.984;5.088;2023-03-01T00:31:21;4.60;54.60
69628;DHT22;56850;51.984;5.088;2023-03-01T00:33:52;4.60;54.60
69628;DHT22;56850;51.984;5.088;2023-03-01T00:36:20;4.60;54.60
69628;DHT22;56850;51.984;5.088;2023-03-01T00:38:47;4.60;54.70
69628;DHT22;56850;51.984;5.088;2023-03-01T00:41:16;4.60;54.70
69628;DHT22;56850;51.984;5.088;2023-03-01T00:43:43;4.60;54.70
69628;DHT22;56850;51.984;5.088;2023-03-01T00:46:13;4.60;54.70
69628;DHT22;56850;51.984;5.088;2023-03-01T00:48:41;4.60;54.70
69628;DHT22;56850;51.984;5.088;2023-03-01T00:51:11;4.50;54.70
69628;DHT22;56850;51.984;5.088;2023-03-01T00:53:39;4.50;54.60
69628;DHT22;56850;51.984;5.088;2023-03-01T00:56:08;4.50;54.70
69628;DHT22;56850;51.984;5.088;2023-03-01T00:58:36;4.40;54.70
69628;DHT22;56850;51.984;5.088;2023-03-01T01:01:12;4.40;54.80
69628;DHT22;56850;51.984;5.088;2023-03-01T01:03:52;4.40;54.80
69628;DHT22;56850;51.984;5.088;2023-03-01T01:06:34;4.30;54.90
69628;DHT22;56850;51.984;5.088;2023-03-01T01:09:03;4.30;55.00
69628;DHT22;56850;51.984;5.088;2023-03-01T01:11:31;4.30;55.10
69628;DHT22;56850;51.984;5.088;2023-03-01T01:13:58;4.30;55.10
69628;DHT22;56850;51.984;5.088;2023-03-01T01:16:27;4.30;55.10
69628;DHT22;56850;51.984;5.088;2023-03-01T01:18:56;4.20;55.20
69628;DHT22;56850;51.984;5.088;2023-03-01T01:21:24;4.20;55.30
69628;DHT22;56850;51.984;5.088;2023-03-01T01:23:51;4.20;55.30
69628;DHT22;56850;51.984;5.088;2023-03-01T01:26:24;4.20;55.20
69628;DHT22;56850;51.984;5.088;2023-03-01T01:28:52;4.20;55.20
69628;DHT22;56850;51.984;5.088;2023-03-01T01:31:20;4.20;55.30
69628;DHT22;56850;51.984;5.088;2023-03-01T01:33:47;4.20;55.30
69628;DHT22;56850;51.984;5.088;2023-03-01T01:36:14;4.20;55.40
69628;DHT22;56850;51.984;5.088;2023-03-01T01:38:41;4.10;55.40
69628;DHT22;56850;51.984;5.088;2023-03-01T01:41:09;4.10;55.40
69628;DHT22;56850;51.984;5.088;2023-03-01T01:43:47;4.10;55.40
69628;DHT22;56850;51.984;5.088;2023-03-01T01:46:32;4.10;55.40
69628;DHT22;56850;51.984;5.088;2023-03-01T01:49:03;4.10;55.50
69628;DHT22;56850;51.984;5.088;2023-03-01T01:51:40;4.10;55.50
69628;DHT22;56850;51.984;5.088;2023-03-01T01:54:17;4.00;55.50
69628;DHT22;56850;51.984;5.088;2023-03-01T01:56:51;4.00;55.60
69628;DHT22;56850;51.984;5.088;2023-03-01T01:59:19;4.00;55.60
69628;DHT22;56850;51.984;5.088;2023-03-01T02:01:52;4.00;55.70
69628;DHT22;56850;51.984;5.088;2023-03-01T02:04:20;3.90;55.70
69628;DHT22;56850;51.984;5.088;2023-03-01T02:07:10;3.90;55.80
69628;DHT22;56850;51.984;5.088;2023-03-01T02:09:42;3.90;56.00
69628;DHT22;56850;51.984;5.088;2023-03-01T02:12:13;3.90;55.90
69628;DHT22;56850;51.984;5.088;2023-03-01T02:14:41;3.90;55.90
69628;DHT22;56850;51.984;5.088;2023-03-01T02:17:07;3.80;56.00
69628;DHT22;56850;51.984;5.088;2023-03-01T02:22:27;3.80;56.20
69628;DHT22;56850;51.984;5.088;2023-03-01T02:30:22;3.70;56.50
69628;DHT22;56850;51.984;5.088;2023-03-01T02:32:50;3.70;56.60
69628;DHT22;56850;51.984;5.088;2023-03-01T02:35:18;3.70;56.60
69628;DHT22;56850;51.984;5.088;2023-03-01T02:37:46;3.70;56.80
69628;DHT22;56850;51.984;5.088;2023-03-01T02:40:17;3.70;57.00
69628;DHT22;56850;51.984;5.088;2023-03-01T02:42:54;3.70;57.00
69628;DHT22;56850;51.984;5.088;2023-03-01T02:45:22;3.70;57.10
69628;DHT22;56850;51.984;5.088;2023-03-01T02:47:49;3.60;57.20
69628;DHT22;56850;51.984;5.088;2023-03-01T02:53:08;3.70;57.40
69628;DHT22;56850;51.984;5.088;2023-03-01T02:55:37;3.70;57.50
69628;DHT22;56850;51.984;5.088;2023-03-01T02:58:05;3.70;57.40
69628;DHT22;56850;51.984;5.088;2023-03-01T03:00:36;3.60;57.50
69628;DHT22;56850;51.984;5.088;2023-03-01T03:03:07;3.70;57.60
69628;DHT22;56850;51.984;5.088;2023-03-01T03:05:35;3.60;57.60
69628;DHT22;56850;51.984;5.088;2023-03-01T03:08:02;3.60;57.60
69628;DHT22;56850;51.984;5.088;2023-03-01T03:10:37;3.60;57.60
69628;DHT22;56850;51.984;5.088;2023-03-01T03:13:07;3.60;57.70
69628;DHT22;56850;51.984;5.088;2023-03-01T03:15:34;3.60;57.70
69628;DHT22;56850;51.984;5.088;2023-03-01T03:18:09;3.50;57.70
69628;DHT22;56850;51.984;5.088;2023-03-01T03:20:36;3.50;57.70
69628;DHT22;56850;51.984;5.088;2023-03-01T03:23:04;3.50;57.80
69628;DHT22;56850;51.984;5.088;2023-03-01T03:25:31;3.50;57.90
69628;DHT22;56850;51.984;5.088;2023-03-01T03:27:58;3.50;57.90
69628;DHT22;56850;51.984;5.088;2023-03-01T03:30:28;3.50;58.00
69628;DHT22;56850;51.984;5.088;2023-03-01T03:32:56;3.50;58.00
69628;DHT22;56850;51.984;5.088;2023-03-01T03:35:32;3.50;58.00
69628;DHT22;56850;51.984;5.088;2023-03-01T03:38:01;3.40;58.00
69628;DHT22;56850;51.984;5.088;2023-03-01T03:42:57;3.40;58.20
69628;DHT22;56850;51.984;5.088;2023-03-01T03:45:26;3.40;58.30
69628;DHT22;56850;51.984;5.088;2023-03-01T03:47:53;3.30;58.40
69628;DHT22;56850;51.984;5.088;2023-03-01T03:50:20;3.30;58.40
69628;DHT22;56850;51.984;5.088;2023-03-01T03:52:47;3.30;58.50
69628;DHT22;56850;51.984;5.088;2023-03-01T03:55:14;3.30;58.50
69628;DHT22;56850;51.984;5.088;2023-03-01T03:57:47;3.30;58.50
69628;DHT22;56850;51.984;5.088;2023-03-01T04:00:20;3.30;58.50
69628;DHT22;56850;51.984;5.088;2023-03-01T04:02:48;3.30;58.50
69628;DHT22;56850;51.984;5.088;2023-03-01T04:05:17;3.30;58.50
69628;DHT22;56850;51.984;5.088;2023-03-01T04:07:45;3.30;58.50
69628;DHT22;56850;51.984;5.088;2023-03-01T04:10:15;3.30;58.50
69628;DHT22;56850;51.984;5.088;2023-03-01T04:12:43;3.30;58.50
69628;DHT22;56850;51.984;5.088;2023-03-01T04:15:11;3.30;58.60
69628;DHT22;56850;51.984;5.088;2023-03-01T04:17:45;3.30;58.70
69628;DHT22;56850;51.984;5.088;2023-03-01T04:20:17;3.30;58.70
69628;DHT22;56850;51.984;5.088;2023-03-01T04:22:47;3.30;58.70
69628;DHT22;56850;51.984;5.088;2023-03-01T04:25:14;3.30;58.60
69628;DHT22;56850;51.984;5.088;2023-03-01T04:27:41;3.20;58.60
69628;DHT22;56850;51.984;5.088;2023-03-01T04:30:09;3.20;58.50
69628;DHT22;56850;51.984;5.088;2023-03-01T04:32:36;3.20;58.50
69628;DHT22;56850;51.984;5.088;2023-03-01T04:35:05;3.20;58.50
69628;DHT22;56850;51.984;5.088;2023-03-01T04:37:32;3.20;58.50
69628;DHT22;56850;51.984;5.088;2023-03-01T04:39:59;3.10;58.50
69628;DHT22;56850;51.984;5.088;2023-03-01T04:42:26;3.10;58.50
69628;DHT22;56850;51.984;5.088;2023-03-01T04:44:53;3.10;58.50
69628;DHT22;56850;51.984;5.088;2023-03-01T04:47:20;3.10;58.60
69628;DHT22;56850;51.984;5.088;2023-03-01T04:49:47;3.10;58.60
69628;DHT22;56850;51.984;5.088;2023-03-01T04:52:13;3.10;58.60
69628;DHT22;56850;51.984;5.088;2023-03-01T04:54:40;3.00;58.60
69628;DHT22;56850;51.984;5.088;2023-03-01T04:57:07;3.00;58.70
69628;DHT22;56850;51.984;5.088;2023-03-01T04:59:34;3.00;58.60
69628;DHT22;56850;51.984;5.088;2023-03-01T05:02:02;3.00;58.60
69628;DHT22;56850;51.984;5.088;2023-03-01T05:04:30;3.00;58.70
69628;DHT22;56850;51.984;5.088;2023-03-01T05:06:57;3.00;58.60
69628;DHT22;56850;51.984;5.088;2023-03-01T05:09:25;3.00;58.70
69628;DHT22;56850;51.984;5.088;2023-03-01T05:11:52;2.90;58.70
69628;DHT22;56850;51.984;5.088;2023-03-01T05:14:18;2.90;58.60
69628;DHT22;56850;51.984;5.088;2023-03-01T05:16:45;2.90;58.70
69628;DHT22;56850;51.984;5.088;2023-03-01T05:19:12;2.90;58.60
69628;DHT22;56850;51.984;5.088;2023-03-01T05:21:43;2.90;58.70
69628;DHT22;56850;51.984;5.088;2023-03-01T05:24:30;2.90;58.80
69628;DHT22;56850;51.984;5.088;2023-03-01T05:26:57;2.90;58.80
69628;DHT22;56850;51.984;5.088;2023-03-01T05:29:26;2.90;58.80
69628;DHT22;56850;51.984;5.088;2023-03-01T05:31:58;2.80;58.70
69628;DHT22;56850;51.984;5.088;2023-03-01T05:34:30;2.80;58.60
69628;DHT22;56850;51.984;5.088;2023-03-01T05:36:57;2.80;58.80
69628;DHT22;56850;51.984;5.088;2023-03-01T05:39:26;2.80;58.80
69628;DHT22;56850;51.984;5.088;2023-03-01T05:41:55;2.70;58.80
69628;DHT22;56850;51.984;5.088;2023-03-01T05:44:23;2.70;58.80
69628;DHT22;56850;51.984;5.088;2023-03-01T05:46:50;2.70;58.80
69628;DHT22;56850;51.984;5.088;2023-03-01T05:49:18;2.70;58.70
69628;DHT22;56850;51.984;5.088;2023-03-01T05:51:50;2.70;58.60
69628;DHT22;56850;51.984;5.088;2023-03-01T05:54:18;2.70;58.70
69628;DHT22;56850;51.984;5.088;2023-03-01T05:56:45;2.70;58.60
69628;DHT22;56850;51.984;5.088;2023-03-01T05:59:12;2.70;58.70
69628;DHT22;56850;51.984;5.088;2023-03-01T06:01:40;2.70;58.60
69628;DHT22;56850;51.984;5.088;2023-03-01T06:04:07;2.70;58.60
69628;DHT22;56850;51.984;5.088;2023-03-01T06:06:35;2.70;58.60
69628;DHT22;56850;51.984;5.088;2023-03-01T06:09:07;2.70;58.60
69628;DHT22;56850;51.984;5.088;2023-03-01T06:11:36;2.60;58.60
69628;DHT22;56850;51.984;5.088;2023-03-01T06:14:04;2.60;58.50
69628;DHT22;56850;51.984;5.088;2023-03-01T06:16:30;2.60;58.50
69628;DHT22;56850;51.984;5.088;2023-03-01T06:18:58;2.60;58.50
69628;DHT22;56850;51.984;5.088;2023-03-01T06:21:25;2.60;58.40
69628;DHT22;56850;51.984;5.088;2023-03-01T06:23:51;2.60;58.30
69628;DHT22;56850;51.984;5.088;2023-03-01T06:26:18;2.60;58.30
69628;DHT22;56850;51.984;5.088;2023-03-01T06:28:45;2.60;58.30
69628;DHT22;56850;51.984;5.088;2023-03-01T06:31:12;2.60;58.20
69628;DHT22;56850;51.984;5.088;2023-03-01T06:33:39;2.60;58.20
69628;DHT22;56850;51.984;5.088;2023-03-01T06:36:07;2.50;58.10
69628;DHT22;56850;51.984;5.088;2023-03-01T06:38:34;2.50;58.10
69628;DHT22;56850;51.984;5.088;2023-03-01T06:41:01;2.50;58.10
69628;DHT22;56850;51.984;5.088;2023-03-01T06:43:28;2.50;58.10
69628;DHT22;56850;51.984;5.088;2023-03-01T06:45:55;2.50;58.00
69628;DHT22;56850;51.984;5.088;2023-03-01T06:48:22;2.50;57.90
69628;DHT22;56850;51.984;5.088;2023-03-01T06:50:49;2.50;57.90
69628;DHT22;56850;51.984;5.088;2023-03-01T06:53:16;2.60;58.00
69628;DHT22;56850;51.984;5.088;2023-03-01T06:55:43;2.50;57.90
69628;DHT22;56850;51.984;5.088;2023-03-01T06:58:10;2.60;58.00
69628;DHT22;56850;51.984;5.088;2023-03-01T07:00:38;2.60;58.00
69628;DHT22;56850;51.984;5.088;2023-03-01T07:03:08;2.60;57.90
69628;DHT22;56850;51.984;5.088;2023-03-01T07:05:35;2.60;57.80
69628;DHT22;56850;51.984;5.088;2023-03-01T07:08:02;2.60;57.80
69628;DHT22;56850;51.984;5.088;2023-03-01T07:10:29;2.60;57.70
69628;DHT22;56850;51.984;5.088;2023-03-01T07:12:57;2.60;57.80
69628;DHT22;56850;51.984;5.088;2023-03-01T07:15:26;2.60;57.80
69628;DHT22;56850;51.984;5.088;2023-03-01T07:17:53;2.60;57.90
69628;DHT22;56850;51.984;5.088;2023-03-01T07:20:20;2.60;58.00
69628;DHT22;56850;51.984;5.088;2023-03-01T07:22:52;2.70;58.00
69628;DHT22;56850;51.984;5.088;2023-03-01T07:25:20;2.70;58.00
69628;DHT22;56850;51.984;5.088;2023-03-01T07:27:53;2.70;58.00
69628;DHT22;56850;51.984;5.088;2023-03-01T07:30:20;2.80;58.00
69628;DHT22;56850;51.984;5.088;2023-03-01T07:32:48;2.80;58.00
69628;DHT22;56850;51.984;5.088;2023-03-01T07:35:15;2.80;58.10
69628;DHT22;56850;51.984;5.088;2023-03-01T07:37:42;2.80;58.00
69628;DHT22;56850;51.984;5.088;2023-03-01T07:40:10;2.90;58.00
69628;DHT22;56850;51.984;5.088;2023-03-01T07:42:37;2.90;58.00
69628;DHT22;56850;51.984;5.088;2023-03-01T07:45:05;3.00;57.90
69628;DHT22;56850;51.984;5.088;2023-03-01T07:47:32;3.00;57.90
69628;DHT22;56850;51.984;5.088;2023-03-01T07:49:59;3.00;57.90
69628;DHT22;56850;51.984;5.088;2023-03-01T07:52:28;3.10;57.90
69628;DHT22;56850;51.984;5.088;2023-03-01T07:54:56;3.20;57.90
69628;DHT22;56850;51.984;5.088;2023-03-01T07:57:23;3.20;57.90
69628;DHT22;56850;51.984;5.088;2023-03-01T07:59:50;3.30;57.90
69628;DHT22;56850;51.984;5.088;2023-03-01T08:02:17;3.40;57.90
69628;DHT22;56850;51.984;5.088;2023-03-01T08:04:44;3.40;57.80
69628;DHT22;56850;51.984;5.088;2023-03-01T08:07:11;3.50;57.80
69628;DHT22;56850;51.984;5.088;2023-03-01T08:09:38;3.60;57.80
69628;DHT22;56850;51.984;5.088;2023-03-01T08:12:05;3.70;57.80
69628;DHT22;56850;51.984;5.088;2023-03-01T08:14:32;3.70;57.70
69628;DHT22;56850;51.984;5.088;2023-03-01T08:16:59;3.80;57.60
69628;DHT22;56850;51.984;5.088;2023-03-01T08:19:26;3.90;57.50
69628;DHT22;56850;51.984;5.088;2023-03-01T08:21:55;4.00;57.40
69628;DHT22;56850;51.984;5.088;2023-03-01T08:24:25;4.00;57.30
69628;DHT22;56850;51.984;5.088;2023-03-01T08:26:52;4.10;57.30
69628;DHT22;56850;51.984;5.088;2023-03-01T08:29:19;4.20;57.20
69628;DHT22;56850;51.984;5.088;2023-03-01T08:31:47;4.20;57.20
69628;DHT22;56850;51.984;5.088;2023-03-01T08:34:16;4.30;57.10
69628;DHT22;56850;51.984;5.088;2023-03-01T08:36:45;4.40;56.90
69628;DHT22;56850;51.984;5.088;2023-03-01T08:39:14;4.50;56.80
69628;DHT22;56850;51.984;5.088;2023-03-01T08:41:42;4.60;56.80
69628;DHT22;56850;51.984;5.088;2023-03-01T08:44:13;4.70;56.70
69628;DHT22;56850;51.984;5.088;2023-03-01T08:46:41;4.70;56.40
69628;DHT22;56850;51.984;5.088;2023-03-01T08:49:11;4.80;56.40
69628;DHT22;56850;51.984;5.088;2023-03-01T08:51:40;4.90;56.30
69628;DHT22;56850;51.984;5.088;2023-03-01T08:54:15;5.00;56.20
69628;DHT22;56850;51.984;5.088;2023-03-01T08:56:42;5.10;55.80
69628;DHT22;56850;51.984;5.088;2023-03-01T08:59:10;5.20;55.60
69628;DHT22;56850;51.984;5.088;2023-03-01T09:01:38;5.30;55.50
69628;DHT22;56850;51.984;5.088;2023-03-01T09:04:05;5.40;55.50
69628;DHT22;56850;51.984;5.088;2023-03-01T09:06:35;5.50;55.20
69628;DHT22;56850;51.984;5.088;2023-03-01T09:09:03;5.60;55.00
69628;DHT22;56850;51.984;5.088;2023-03-01T09:11:31;5.70;55.00
69628;DHT22;56850;51.984;5.088;2023-03-01T09:13:58;5.80;54.70
69628;DHT22;56850;51.984;5.088;2023-03-01T09:16:25;5.90;54.70
69628;DHT22;56850;51.984;5.088;2023-03-01T09:18:54;6.00;54.50
69628;DHT22;56850;51.984;5.088;2023-03-01T09:21:22;6.20;53.70
69628;DHT22;56850;51.984;5.088;2023-03-01T09:24:15;6.30;53.60
69628;DHT22;56850;51.984;5.088;2023-03-01T09:26:43;6.30;53.10
69628;DHT22;56850;51.984;5.088;2023-03-01T09:29:15;6.40;53.20
69628;DHT22;56850;51.984;5.088;2023-03-01T09:31:42;6.50;52.80
69628;DHT22;56850;51.984;5.088;2023-03-01T09:34:10;6.60;52.40
69628;DHT22;56850;51.984;5.088;2023-03-01T09:36:38;6.70;52.30
69628;DHT22;56850;51.984;5.088;2023-03-01T09:39:05;6.80;52.10
69628;DHT22;56850;51.984;5.088;2023-03-01T09:42:04;6.90;52.00
69628;DHT22;56850;51.984;5.088;2023-03-01T09:47:22;7.10;50.70
69628;DHT22;56850;51.984;5.088;2023-03-01T09:50:14;7.10;50.80
69628;DHT22;56850;51.984;5.088;2023-03-01T09:52:54;7.30;50.70
69628;DHT22;56850;51.984;5.088;2023-03-01T09:55:31;7.40;50.70
69628;DHT22;56850;51.984;5.088;2023-03-01T09:58:14;7.50;50.80
69628;DHT22;56850;51.984;5.088;2023-03-01T10:00:49;7.70;50.60
69628;DHT22;56850;51.984;5.088;2023-03-01T10:03:39;7.90;49.90
69628;DHT22;56850;51.984;5.088;2023-03-01T10:06:23;8.00;49.60
69628;DHT22;56850;51.984;5.088;2023-03-01T10:09:10;8.10;49.10
69628;DHT22;56850;51.984;5.088;2023-03-01T10:11:42;8.10;48.50
69628;DHT22;56850;51.984;5.088;2023-03-01T10:17:02;8.30;48.10
69628;DHT22;56850;51.984;5.088;2023-03-01T10:19:40;8.40;47.60
69628;DHT22;56850;51.984;5.088;2023-03-01T10:22:20;8.40;47.70
69628;DHT22;56850;51.984;5.088;2023-03-01T10:24:51;8.60;46.90
69628;DHT22;56850;51.984;5.088;2023-03-01T10:27:42;8.70;46.60
69628;DHT22;56850;51.984;5.088;2023-03-01T10:32:48;8.80;46.20
69628;DHT22;56850;51.984;5.088;2023-03-01T10:35:24;8.90;46.10
69628;DHT22;56850;51.984;5.088;2023-03-01T10:38:09;9.10;46.20
69628;DHT22;56850;51.984;5.088;2023-03-01T10:40:49;9.20;45.90
69628;DHT22;56850;51.984;5.088;2023-03-01T10:43:17;9.30;45.40
69628;DHT22;56850;51.984;5.088;2023-03-01T10:45:44;9.40;45.30
69628;DHT22;56850;51.984;5.088;2023-03-01T10:48:14;9.50;44.90
69628;DHT22;56850;51.984;5.088;2023-03-01T10:50:45;9.60;44.90
69628;DHT22;56850;51.984;5.088;2023-03-01T10:53:41;9.60;44.60
69628;DHT22;56850;51.984;5.088;2023-03-01T10:56:13;9.70;44.50
69628;DHT22;56850;51.984;5.088;2023-03-01T10:59:03;9.90;44.60
69628;DHT22;56850;51.984;5.088;2023-03-01T11:01:35;10.00;43.60
69628;DHT22;56850;51.984;5.088;2023-03-01T11:04:11;10.10;43.50
69628;DHT22;56850;51.984;5.088;2023-03-01T11:06:40;10.20;43.10
69628;DHT22;56850;51.984;5.088;2023-03-01T11:11:40;10.10;42.00
69628;DHT22;56850;51.984;5.088;2023-03-01T11:14:16;10.10;42.00
69628;DHT22;56850;51.984;5.088;2023-03-01T11:17:13;10.10;42.00
69628;DHT22;56850;51.984;5.088;2023-03-01T11:19:41;10.20;41.30
69628;DHT22;56850;51.984;5.088;2023-03-01T11:22:20;10.30;41.40
69628;DHT22;56850;51.984;5.088;2023-03-01T11:24:51;10.30;41.20
69628;DHT22;56850;51.984;5.088;2023-03-01T11:27:39;10.30;40.70
69628;DHT22;56850;51.984;5.088;2023-03-01T11:32:43;10.60;40.50
69628;DHT22;56850;51.984;5.088;2023-03-01T11:35:19;10.70;40.60
69628;DHT22;56850;51.984;5.088;2023-03-01T11:38:23;10.80;40.80
69628;DHT22;56850;51.984;5.088;2023-03-01T12:00:58;11.80;39.10
69628;DHT22;56850;51.984;5.088;2023-03-01T12:11:36;12.40;38.60
69628;DHT22;56850;51.984;5.088;2023-03-01T12:17:20;12.50;37.60
69628;DHT22;56850;51.984;5.088;2023-03-01T12:22:53;12.70;36.50
69628;DHT22;56850;51.984;5.088;2023-03-01T12:31:49;12.90;36.40
69628;DHT22;56850;51.984;5.088;2023-03-01T12:34:44;13.10;36.40
69628;DHT22;56850;51.984;5.088;2023-03-01T12:40:42;13.10;35.40
69628;DHT22;56850;51.984;5.088;2023-03-01T12:43:55;13.10;34.90
69628;DHT22;56850;51.984;5.088;2023-03-01T12:49:30;13.00;34.70
69628;DHT22;56850;51.984;5.088;2023-03-01T12:54:36;13.20;34.90
69628;DHT22;56850;51.984;5.088;2023-03-01T12:57:33;13.30;34.60
69628;DHT22;56850;51.984;5.088;2023-03-01T13:06:07;13.50;33.90
69628;DHT22;56850;51.984;5.088;2023-03-01T13:09:04;13.50;33.80
69628;DHT22;56850;51.984;5.088;2023-03-01T13:11:34;13.50;33.20
69628;DHT22;56850;51.984;5.088;2023-03-01T13:14:37;13.50;33.40
69628;DHT22;56850;51.984;5.088;2023-03-01T13:17:30;13.60;33.40
69628;DHT22;56850;51.984;5.088;2023-03-01T13:19:58;13.70;33.20
69628;DHT22;56850;51.984;5.088;2023-03-01T13:22:29;13.70;33.00
69628;DHT22;56850;51.984;5.088;2023-03-01T13:25:13;13.80;33.00
69628;DHT22;56850;51.984;5.088;2023-03-01T13:27:40;13.90;32.80
69628;DHT22;56850;51.984;5.088;2023-03-01T13:30:39;14.00;33.00
69628;DHT22;56850;51.984;5.088;2023-03-01T13:35:55;14.10;32.80
69628;DHT22;56850;51.984;5.088;2023-03-01T13:41:17;14.20;33.00
69628;DHT22;56850;51.984;5.088;2023-03-01T13:44:12;14.20;32.80
69628;DHT22;56850;51.984;5.088;2023-03-01T13:46:40;14.30;32.60
69628;DHT22;56850;51.984;5.088;2023-03-01T13:49:14;14.20;32.20
69628;DHT22;56850;51.984;5.088;2023-03-01T13:51:46;14.20;32.20
69628;DHT22;56850;51.984;5.088;2023-03-01T13:54:15;14.10;32.20
69628;DHT22;56850;51.984;5.088;2023-03-01T13:56:43;14.10;32.10
69628;DHT22;56850;51.984;5.088;2023-03-01T13:59:19;14.10;31.80
69628;DHT22;56850;51.984;5.088;2023-03-01T14:01:54;14.10;32.10
69628;DHT22;56850;51.984;5.088;2023-03-01T14:04:27;14.20;32.10
69628;DHT22;56850;51.984;5.088;2023-03-01T14:07:21;14.20;31.90
69628;DHT22;56850;51.984;5.088;2023-03-01T14:09:53;14.20;31.80
69628;DHT22;56850;51.984;5.088;2023-03-01T14:15:38;14.00;31.60
69628;DHT22;56850;51.984;5.088;2023-03-01T14:20:43;13.90;31.70
69628;DHT22;56850;51.984;5.088;2023-03-01T14:23:14;13.90;31.80
69628;DHT22;56850;51.984;5.088;2023-03-01T14:25:54;14.00;31.60
69628;DHT22;56850;51.984;5.088;2023-03-01T14:28:28;14.00;31.40
69628;DHT22;56850;51.984;5.088;2023-03-01T14:31:01;13.90;31.40
69628;DHT22;56850;51.984;5.088;2023-03-01T14:33:34;13.90;31.30
69628;DHT22;56850;51.984;5.088;2023-03-01T14:38:46;14.00;31.90
69628;DHT22;56850;51.984;5.088;2023-03-01T14:41:16;14.10;32.00
69628;DHT22;56850;51.984;5.088;2023-03-01T14:43:58;14.10;32.10
69628;DHT22;56850;51.984;5.088;2023-03-01T14:46:30;14.10;32.10
69628;DHT22;56850;51.984;5.088;2023-03-01T14:49:11;14.10;32.30
69628;DHT22;56850;51.984;5.088;2023-03-01T14:51:41;14.20;32.30
69628;DHT22;56850;51.984;5.088;2023-03-01T14:57:05;14.20;31.90
69628;DHT22;56850;51.984;5.088;2023-03-01T14:59:33;14.20;31.80
69628;DHT22;56850;51.984;5.088;2023-03-01T15:02:01;14.20;32.00
69628;DHT22;56850;51.984;5.088;2023-03-01T15:04:28;14.10;31.90
69628;DHT22;56850;51.984;5.088;2023-03-01T15:06:57;14.10;32.20
69628;DHT22;56850;51.984;5.088;2023-03-01T15:09:34;14.10;32.40
69628;DHT22;56850;51.984;5.088;2023-03-01T15:16:05;14.10;32.20
69628;DHT22;56850;51.984;5.088;2023-03-01T15:18:34;14.10;32.40
69628;DHT22;56850;51.984;5.088;2023-03-01T15:21:07;14.10;32.40
69628;DHT22;56850;51.984;5.088;2023-03-01T15:23:36;14.00;32.00
69628;DHT22;56850;51.984;5.088;2023-03-01T15:26:03;13.90;31.80
69628;DHT22;56850;51.984;5.088;2023-03-01T15:28:34;13.80;31.70
69628;DHT22;56850;51.984;5.088;2023-03-01T15:31:22;13.70;31.70
69628;DHT22;56850;51.984;5.088;2023-03-01T15:33:50;13.60;31.60
69628;DHT22;56850;51.984;5.088;2023-03-01T15:36:36;13.50;31.80
69628;DHT22;56850;51.984;5.088;2023-03-01T15:39:04;13.50;32.10
69628;DHT22;56850;51.984;5.088;2023-03-01T15:41:45;13.50;32.00
69628;DHT22;56850;51.984;5.088;2023-03-01T15:44:34;13.50;32.20
69628;DHT22;56850;51.984;5.088;2023-03-01T15:47:28;13.50;31.90
69628;DHT22;56850;51.984;5.088;2023-03-01T15:49:57;13.40;32.20
69628;DHT22;56850;51.984;5.088;2023-03-01T15:52:32;13.30;32.20
69628;DHT22;56850;51.984;5.088;2023-03-01T15:55:06;13.20;32.30
69628;DHT22;56850;51.984;5.088;2023-03-01T15:57:33;13.10;32.50
69628;DHT22;56850;51.984;5.088;2023-03-01T16:00:00;13.00;32.70
69628;DHT22;56850;51.984;5.088;2023-03-01T16:02:30;13.00;32.80
69628;DHT22;56850;51.984;5.088;2023-03-01T16:04:57;12.90;32.80
69628;DHT22;56850;51.984;5.088;2023-03-01T16:07:24;12.80;32.90
69628;DHT22;56850;51.984;5.088;2023-03-01T16:09:53;12.80;33.10
69628;DHT22;56850;51.984;5.088;2023-03-01T16:12:20;12.70;33.40
69628;DHT22;56850;51.984;5.088;2023-03-01T16:14:47;12.70;33.50
69628;DHT22;56850;51.984;5.088;2023-03-01T16:17:15;12.70;33.50
69628;DHT22;56850;51.984;5.088;2023-03-01T16:19:42;12.60;33.70
69628;DHT22;56850;51.984;5.088;2023-03-01T16:22:10;12.60;33.50
69628;DHT22;56850;51.984;5.088;2023-03-01T16:24:37;12.50;33.50
69628;DHT22;56850;51.984;5.088;2023-03-01T16:27:04;12.30;33.40
69628;DHT22;56850;51.984;5.088;2023-03-01T16:29:31;12.20;33.70
69628;DHT22;56850;51.984;5.088;2023-03-01T16:32:00;12.10;34.00
69628;DHT22;56850;51.984;5.088;2023-03-01T16:34:28;12.00;34.00
69628;DHT22;56850;51.984;5.088;2023-03-01T16:36:55;11.90;34.20
69628;DHT22;56850;51.984;5.088;2023-03-01T16:39:22;11.90;34.40
69628;DHT22;56850;51.984;5.088;2023-03-01T16:41:49;11.80;34.40
69628;DHT22;56850;51.984;5.088;2023-03-01T16:44:16;11.80;34.60
69628;DHT22;56850;51.984;5.088;2023-03-01T16:46:42;11.70;34.60
69628;DHT22;56850;51.984;5.088;2023-03-01T16:49:10;11.60;34.70
69628;DHT22;56850;51.984;5.088;2023-03-01T16:51:36;11.50;35.00
69628;DHT22;56850;51.984;5.088;2023-03-01T16:54:03;11.60;35.10
69628;DHT22;56850;51.984;5.088;2023-03-01T16:56:31;11.60;35.10
69628;DHT22;56850;51.984;5.088;2023-03-01T16:59:00;11.50;35.30
69628;DHT22;56850;51.984;5.088;2023-03-01T17:01:32;11.40;35.40
69628;DHT22;56850;51.984;5.088;2023-03-01T17:04:06;11.30;35.50
69628;DHT22;56850;51.984;5.088;2023-03-01T17:06:36;11.20;35.70
69628;DHT22;56850;51.984;5.088;2023-03-01T17:09:03;11.10;35.80
69628;DHT22;56850;51.984;5.088;2023-03-01T17:11:30;11.00;36.00
69628;DHT22;56850;51.984;5.088;2023-03-01T17:13:58;10.90;36.20
69628;DHT22;56850;51.984;5.088;2023-03-01T17:16:25;10.70;36.40
69628;DHT22;56850;51.984;5.088;2023-03-01T17:18:54;10.70;36.70
69628;DHT22;56850;51.984;5.088;2023-03-01T17:21:20;10.60;36.80
69628;DHT22;56850;51.984;5.088;2023-03-01T17:23:47;10.50;37.00
69628;DHT22;56850;51.984;5.088;2023-03-01T17:26:16;10.40;37.20
69628;DHT22;56850;51.984;5.088;2023-03-01T17:28:43;10.40;37.40
69628;DHT22;56850;51.984;5.088;2023-03-01T17:31:10;10.30;37.60
69628;DHT22;56850;51.984;5.088;2023-03-01T17:33:37;10.20;37.80
69628;DHT22;56850;51.984;5.088;2023-03-01T17:36:04;10.10;37.90
69628;DHT22;56850;51.984;5.088;2023-03-01T17:38:31;10.10;38.10
69628;DHT22;56850;51.984;5.088;2023-03-01T17:40:59;10.10;38.30
69628;DHT22;56850;51.984;5.088;2023-03-01T17:43:27;10.00;38.40
69628;DHT22;56850;51.984;5.088;2023-03-01T17:45:55;10.00;38.60
69628;DHT22;56850;51.984;5.088;2023-03-01T17:48:22;9.90;38.80